createdAt,value
2018-02-17T00:00:24.622Z,19.20
2018-02-17T00:02:52.137Z,15.90
2018-02-17T00:05:19.624Z,11.47
2018-02-17T00:07:47.300Z,16.27
2018-02-17T00:10:15.558Z,15.37
2018-02-17T00:12:43.069Z,19.67
2018-02-17T00:15:10.578Z,20.37
2018-02-17T00:17:38.058Z,17.73
2018-02-17T00:20:06.344Z,18.37
2018-02-17T00:22:34.583Z,16.87
2018-02-17T00:25:02.877Z,21.47
2018-02-17T00:27:30.368Z,20.37
2018-02-17T00:29:57.887Z,22.70
2018-02-17T00:32:25.375Z,24.30
2018-02-17T00:34:53.658Z,20.10
2018-02-17T00:37:21.891Z,18.80
2018-02-17T00:39:49.779Z,14.40
2018-02-17T00:42:18.043Z,16.03
2018-02-17T00:44:45.515Z,15.10
2018-02-17T00:47:13.022Z,19.90
2018-02-17T00:49:40.505Z,14.27
2018-02-17T00:52:08.012Z,14.63
2018-02-17T00:54:36.261Z,13.50
2018-02-17T00:57:03.754Z,15.73
2018-02-17T00:59:31.247Z,17.30
2018-02-17T01:01:58.750Z,13.67
2018-02-17T01:04:26.220Z,9.53
2018-02-17T01:06:54.476Z,10.53
2018-02-17T01:09:21.935Z,7.23
2018-02-17T01:11:49.432Z,10.50
2018-02-17T01:14:16.906Z,9.57
2018-02-17T01:16:44.441Z,8.00
2018-02-17T01:19:12.714Z,11.07
2018-02-17T01:21:40.960Z,11.77
2018-02-17T01:24:08.442Z,9.07
2018-02-17T01:26:35.924Z,6.07
2018-02-17T01:29:03.410Z,8.50
2018-02-17T01:31:30.879Z,5.70
2018-02-17T01:33:58.386Z,8.13
2018-02-17T01:36:25.855Z,5.37
2018-02-17T01:38:53.369Z,6.63
2018-02-17T01:41:20.837Z,6.97
2018-02-17T01:43:48.338Z,6.47
2018-02-17T01:46:15.828Z,8.37
2018-02-17T01:48:43.329Z,8.90
2018-02-17T01:51:11.592Z,5.43
2018-02-17T01:53:39.067Z,6.13
2018-02-17T01:56:07.295Z,6.67
2018-02-17T01:58:35.588Z,6.60
2018-02-17T02:01:03.939Z,8.07
2018-02-17T02:03:31.407Z,7.97
2018-02-17T02:05:58.899Z,9.70
2018-02-17T02:08:26.364Z,5.90
2018-02-17T02:10:54.635Z,5.90
2018-02-17T02:13:22.101Z,8.20
2018-02-17T02:15:50.376Z,8.90
2018-02-17T02:18:18.606Z,8.87
2018-02-17T02:20:46.104Z,6.73
2018-02-17T02:23:14.335Z,7.30
2018-02-17T02:25:41.838Z,10.93
2018-02-17T02:28:09.299Z,6.63
2018-02-17T02:30:37.573Z,9.77
2018-02-17T02:33:05.833Z,5.07
2018-02-17T02:35:33.339Z,6.77
2018-02-17T02:38:00.847Z,7.77
2018-02-17T02:40:28.340Z,7.63
2018-02-17T02:42:56.559Z,6.90
2018-02-17T02:45:24.056Z,8.53
2018-02-17T02:47:52.440Z,6.73
2018-02-17T02:50:19.944Z,5.73
2018-02-17T02:52:47.424Z,7.87
2018-02-17T02:55:14.923Z,9.47
2018-02-17T02:57:43.139Z,5.93
2018-02-17T03:00:10.641Z,4.87
2018-02-17T03:02:38.145Z,10.00
2018-02-17T03:05:05.627Z,7.50
2018-02-17T03:07:33.122Z,9.03
2018-02-17T03:10:00.588Z,8.37
2018-02-17T03:12:28.838Z,8.33
2018-02-17T03:14:56.316Z,6.40
2018-02-17T03:17:23.790Z,10.33
2018-02-17T03:19:51.263Z,9.47
2018-02-17T03:22:18.780Z,10.23
2018-02-17T03:24:46.854Z,8.63
2018-02-17T03:27:14.322Z,10.37
2018-02-17T03:29:41.849Z,13.37
2018-02-17T03:32:09.313Z,9.80
2018-02-17T03:34:36.822Z,11.80
2018-02-17T03:37:04.295Z,12.97
2018-02-17T03:39:31.782Z,8.07
2018-02-17T03:41:59.251Z,9.57
2018-02-17T03:44:26.734Z,10.80
2018-02-17T03:46:54.959Z,11.87
2018-02-17T03:49:22.453Z,9.50
2018-02-17T03:51:50.692Z,10.53
2018-02-17T03:54:18.205Z,11.93
2018-02-17T03:56:45.663Z,12.47
2018-02-17T03:59:13.156Z,9.20
2018-02-17T04:01:40.616Z,9.47
2018-02-17T04:04:08.118Z,10.13
2018-02-17T04:06:36.368Z,12.97
2018-02-17T04:09:04.256Z,12.87
2018-02-17T04:11:32.497Z,11.17
2018-02-17T04:13:59.963Z,10.50
2018-02-17T04:16:27.461Z,10.97
2018-02-17T04:18:55.038Z,11.27
2018-02-17T04:21:22.522Z,11.90
2018-02-17T04:23:49.996Z,13.23
2018-02-17T04:26:17.491Z,10.87
2018-02-17T04:28:44.972Z,11.33
2018-02-17T04:31:12.491Z,8.63
2018-02-17T04:33:40.722Z,12.10
2018-02-17T04:36:08.222Z,15.63
2018-02-17T04:38:36.467Z,10.23
2018-02-17T04:41:05.678Z,17.40
2018-02-17T04:43:35.069Z,11.17
2018-02-17T04:46:15.296Z,9.63
2018-02-17T04:48:57.645Z,12.10
2018-02-17T04:51:25.160Z,13.93
2018-02-17T04:54:09.349Z,15.60
2018-02-17T04:56:37.306Z,12.30
2018-02-17T04:59:10.566Z,11.57
2018-02-17T05:01:54.820Z,15.63
2018-02-17T05:04:26.147Z,17.27
2018-02-17T05:07:06.363Z,13.63
2018-02-17T05:09:33.838Z,14.30
2018-02-17T05:12:02.091Z,13.53
2018-02-17T05:14:44.513Z,11.97
2018-02-17T05:17:17.734Z,16.73
2018-02-17T05:19:47.105Z,16.10
2018-02-17T05:22:29.493Z,13.20
2018-02-17T05:25:11.853Z,10.53
2018-02-17T05:27:42.188Z,15.27
2018-02-17T05:30:10.241Z,18.20
2018-02-17T05:32:41.416Z,14.67
2018-02-17T05:35:23.772Z,15.90
2018-02-17T05:37:52.045Z,13.73
2018-02-17T05:40:22.099Z,18.97
2018-02-17T05:42:49.699Z,16.40
2018-02-17T05:45:18.994Z,17.50
2018-02-17T05:48:02.123Z,17.67
2018-02-17T05:50:39.507Z,15.03
2018-02-17T05:53:07.046Z,18.03
2018-02-17T05:55:34.546Z,18.50
2018-02-17T05:58:02.021Z,30.17
2018-02-17T06:00:30.296Z,20.53
2018-02-17T06:02:58.532Z,20.10
2018-02-17T06:05:26.031Z,19.30
2018-02-17T06:07:54.281Z,20.37
2018-02-17T06:10:21.782Z,18.63
2018-02-17T06:12:49.251Z,22.87
2018-02-17T06:15:16.760Z,19.17
2018-02-17T06:17:44.265Z,26.43
2018-02-17T06:20:11.748Z,22.10
2018-02-17T06:22:39.225Z,22.90
2018-02-17T06:25:06.738Z,25.67
2018-02-17T06:27:34.214Z,24.20
2018-02-17T06:30:01.723Z,23.13
2018-02-17T06:32:30.325Z,21.50
2018-02-17T06:34:58.068Z,24.23
2018-02-17T06:37:26.310Z,21.87
2018-02-17T06:39:53.799Z,20.27
2018-02-17T06:42:22.060Z,19.37
2018-02-17T06:44:49.540Z,18.77
2018-02-17T06:47:17.818Z,18.63
2018-02-17T06:49:46.047Z,18.67
2018-02-17T06:52:13.564Z,22.17
2018-02-17T06:54:41.052Z,19.10
2018-02-17T06:57:09.316Z,18.77
2018-02-17T06:59:36.810Z,18.27
2018-02-17T07:02:04.324Z,22.13
2018-02-17T07:04:31.803Z,23.97
2018-02-17T07:06:59.325Z,24.73
2018-02-17T07:09:26.811Z,26.27
2018-02-17T07:11:54.351Z,18.23
2018-02-17T07:14:21.826Z,17.53
2018-02-17T07:16:49.332Z,18.30
2018-02-17T07:19:17.556Z,21.20
2018-02-17T07:21:45.048Z,16.53
2018-02-17T07:24:12.539Z,20.60
2018-02-17T07:26:40.807Z,22.83
2018-02-17T07:29:09.040Z,20.10
2018-02-17T07:31:36.552Z,20.73
2018-02-17T07:34:04.015Z,21.47
2018-02-17T07:36:31.512Z,21.03
2018-02-17T07:38:58.982Z,21.03
2018-02-17T07:41:26.489Z,22.87
2018-02-17T07:43:53.990Z,27.70
2018-02-17T07:46:21.496Z,27.10
2018-02-17T07:48:49.752Z,23.53
2018-02-17T07:51:18.445Z,25.57
2018-02-17T07:53:46.685Z,33.10
2018-02-17T07:56:14.151Z,26.67
2018-02-17T07:58:41.736Z,29.60
2018-02-17T08:01:09.959Z,27.37
2018-02-17T08:03:37.458Z,27.00
2018-02-17T08:06:04.969Z,23.50
2018-02-17T08:08:32.448Z,29.43
2018-02-17T08:11:00.034Z,30.03
2018-02-17T08:13:27.525Z,22.30
2018-02-17T08:15:55.365Z,27.30
2018-02-17T08:18:22.847Z,27.97
2018-02-17T08:20:50.307Z,25.47
2018-02-17T08:23:17.797Z,34.43
2018-02-17T08:25:45.300Z,30.93
2018-02-17T08:28:13.582Z,26.63
2018-02-17T08:30:41.880Z,35.83
2018-02-17T08:33:09.364Z,30.33
2018-02-17T08:35:36.868Z,30.43
2018-02-17T08:38:05.130Z,30.30
2018-02-17T08:40:33.527Z,28.43
2018-02-17T08:43:01.802Z,28.27
2018-02-17T08:45:29.305Z,32.63
2018-02-17T08:47:56.806Z,33.43
2018-02-17T08:50:24.281Z,35.37
2018-02-17T08:52:52.566Z,35.83
2018-02-17T08:55:20.058Z,29.73
2018-02-17T08:57:47.570Z,33.53
2018-02-17T09:00:15.822Z,34.90
2018-02-17T09:02:43.331Z,25.73
2018-02-17T09:05:10.825Z,30.50
2018-02-17T09:07:38.333Z,31.90
2018-02-17T09:10:05.858Z,30.30
2018-02-17T09:12:33.370Z,32.90
2018-02-17T09:15:00.872Z,35.47
2018-02-17T09:17:28.372Z,34.30
2018-02-17T09:19:55.859Z,49.37
2018-02-17T09:22:23.365Z,52.63
2018-02-17T09:24:51.619Z,35.77
2018-02-17T09:27:19.239Z,38.60
2018-02-17T09:29:47.146Z,31.90
2018-02-17T09:32:14.652Z,37.67
2018-02-17T09:34:42.172Z,46.50
2018-02-17T09:37:09.673Z,39.77
2018-02-17T09:39:37.135Z,57.43
2018-02-17T09:42:04.636Z,35.93
2018-02-17T09:44:32.160Z,38.33
2018-02-17T09:46:59.680Z,33.83
2018-02-17T09:49:27.919Z,35.23
2018-02-17T09:51:55.415Z,36.23
2018-02-17T09:54:23.658Z,36.50
2018-02-17T09:56:51.129Z,35.17
2018-02-17T09:59:18.636Z,47.60
2018-02-17T10:01:46.131Z,42.60
2018-02-17T10:04:13.615Z,40.60
2018-02-17T10:06:41.873Z,80.93
2018-02-17T10:09:09.375Z,37.07
2018-02-17T10:11:36.862Z,81.23
2018-02-17T10:14:04.369Z,43.47
2018-02-17T10:16:32.604Z,48.10
2018-02-17T10:19:00.879Z,40.60
2018-02-17T10:21:28.398Z,36.27
2018-02-17T10:23:56.285Z,61.03
2018-02-17T10:26:23.777Z,46.23
2018-02-17T10:28:51.256Z,26.07
2018-02-17T10:31:18.765Z,44.63
2018-02-17T10:33:46.226Z,31.93
2018-02-17T10:36:13.742Z,29.43
2018-02-17T10:38:42.013Z,34.30
2018-02-17T10:41:10.284Z,29.73
2018-02-17T10:43:38.507Z,46.67
2018-02-17T10:46:06.021Z,26.63
2018-02-17T10:48:34.269Z,25.97
2018-02-17T10:51:01.766Z,33.40
2018-02-17T10:53:30.003Z,28.93
2018-02-17T10:55:57.518Z,74.67
2018-02-17T10:58:24.993Z,25.27
2018-02-17T11:00:52.489Z,26.80
2018-02-17T11:03:19.973Z,23.00
2018-02-17T11:05:48.257Z,17.67
2018-02-17T11:08:15.724Z,22.73
2018-02-17T11:10:43.236Z,25.47
2018-02-17T11:13:10.715Z,17.30
2018-02-17T11:15:38.226Z,25.33
2018-02-17T11:18:05.709Z,19.77
2018-02-17T11:20:33.598Z,21.50
2018-02-17T11:23:01.123Z,26.47
2018-02-17T11:25:28.587Z,23.03
2018-02-17T11:27:56.094Z,32.80
2018-02-17T11:30:23.563Z,27.00
2018-02-17T11:32:51.062Z,17.70
2018-02-17T11:35:18.533Z,19.80
2018-02-17T11:37:46.042Z,18.00
2018-02-17T11:40:13.531Z,24.80
2018-02-17T11:42:41.030Z,31.43
2018-02-17T11:45:08.495Z,14.13
2018-02-17T11:47:36.000Z,16.63
2018-02-17T11:50:03.459Z,18.90
2018-02-17T11:52:30.966Z,16.80
2018-02-17T11:54:58.420Z,13.57
2018-02-17T11:57:25.915Z,12.80
2018-02-17T11:59:53.386Z,14.53
2018-02-17T12:02:20.897Z,15.50
2018-02-17T12:04:48.359Z,13.37
2018-02-17T12:07:15.869Z,18.20
2018-02-17T12:09:43.358Z,15.63
2018-02-17T12:12:11.623Z,17.53
2018-02-17T12:14:39.868Z,16.63
2018-02-17T12:17:07.411Z,24.63
2018-02-17T12:19:34.883Z,14.70
2018-02-17T12:22:02.440Z,14.00
2018-02-17T12:24:29.927Z,18.10
2018-02-17T12:26:57.417Z,12.63
2018-02-17T12:29:24.900Z,13.90
2018-02-17T12:31:52.418Z,14.03
2018-02-17T12:34:20.734Z,23.33
2018-02-17T12:36:48.198Z,10.93
2018-02-17T12:39:15.684Z,8.83
2018-02-17T12:41:43.155Z,11.03
2018-02-17T12:44:11.410Z,9.67
2018-02-17T12:46:38.873Z,10.33
2018-02-17T12:51:40.172Z,15.37
2018-02-17T12:54:08.454Z,13.90
2018-02-17T12:56:35.914Z,15.70
2018-02-17T12:59:03.441Z,16.07
2018-02-17T13:01:30.919Z,23.80
2018-02-17T13:03:59.192Z,20.70
2018-02-17T13:06:27.431Z,13.23
2018-02-17T13:08:54.974Z,21.20
2018-02-17T13:11:22.444Z,20.17
2018-02-17T13:13:50.180Z,14.43
2018-02-17T13:16:18.513Z,12.57
2018-02-17T13:18:46.758Z,15.13
2018-02-17T13:21:14.270Z,32.03
2018-02-17T13:23:41.737Z,17.70
2018-02-17T13:26:09.238Z,16.50
2018-02-17T13:28:36.712Z,19.83
2018-02-17T13:31:04.204Z,19.83
2018-02-17T13:33:31.709Z,22.07
2018-02-17T13:35:59.203Z,24.33
2018-02-17T13:38:27.457Z,28.23
2018-02-17T13:40:54.969Z,22.93
2018-02-17T13:43:22.444Z,23.70
2018-02-17T13:45:49.932Z,20.57
2018-02-17T13:48:18.459Z,21.10
2018-02-17T13:50:45.968Z,21.00
2018-02-17T13:53:13.436Z,20.33
2018-02-17T13:55:41.695Z,46.00
2018-02-17T13:58:09.163Z,42.53
2018-02-17T14:00:36.668Z,19.40
2018-02-17T14:03:04.166Z,19.40
2018-02-17T14:05:31.658Z,30.10
2018-02-17T14:08:00.248Z,40.00
2018-02-17T14:10:27.852Z,30.57
2018-02-17T14:12:55.346Z,32.80
2018-02-17T14:15:23.635Z,23.47
2018-02-17T14:17:51.876Z,27.53
2018-02-17T14:20:19.401Z,20.40
2018-02-17T14:22:46.899Z,30.60
2018-02-17T14:25:14.399Z,27.60
2018-02-17T14:27:41.873Z,34.10
2018-02-17T14:30:09.370Z,33.93
2018-02-17T14:32:36.854Z,24.23
2018-02-17T14:35:05.135Z,23.00
2018-02-17T14:37:33.389Z,24.73
2018-02-17T14:40:01.208Z,38.63
2018-02-17T14:42:28.673Z,23.63
2018-02-17T14:44:56.156Z,27.63
2018-02-17T14:47:23.659Z,36.67
2018-02-17T14:49:51.895Z,27.77
2018-02-17T14:52:19.527Z,28.60
2018-02-17T14:54:47.846Z,34.33
2018-02-17T14:57:15.340Z,43.47
2018-02-17T14:59:42.816Z,60.93
2018-02-17T15:02:10.308Z,36.93
2018-02-17T15:04:37.775Z,28.87
2018-02-17T15:07:05.284Z,26.57
2018-02-17T15:09:43.552Z,56.93
2018-02-17T15:12:11.821Z,32.67
2018-02-17T15:14:39.327Z,34.13
2018-02-17T15:17:06.841Z,34.87
2018-02-17T15:19:34.339Z,30.27
2018-02-17T15:22:01.850Z,50.43
2018-02-17T15:24:29.314Z,38.97
2018-02-17T15:26:57.580Z,35.20
2018-02-17T15:29:25.061Z,51.80
2018-02-17T15:31:53.358Z,42.47
2018-02-17T15:34:20.840Z,30.33
2018-02-17T15:36:48.330Z,37.33
2018-02-17T15:39:15.829Z,31.87
2018-02-17T15:41:43.326Z,28.87
2018-02-17T15:44:11.587Z,30.80
2018-02-17T15:46:39.248Z,40.63
2018-02-17T15:49:06.723Z,30.20
2018-02-17T15:51:34.208Z,33.27
2018-02-17T15:54:02.480Z,33.53
2018-02-17T15:56:29.974Z,34.57
2018-02-17T15:58:57.509Z,28.80
2018-02-17T16:01:25.755Z,25.10
2018-02-17T16:03:53.277Z,39.30
2018-02-17T16:06:20.759Z,38.37
2018-02-17T16:08:48.265Z,32.57
2018-02-17T16:11:16.518Z,37.17
2018-02-17T16:13:44.042Z,50.87
2018-02-17T16:16:11.511Z,38.83
2018-02-17T16:18:39.026Z,39.73
2018-02-17T16:21:06.496Z,42.80
2018-02-17T16:23:34.028Z,30.80
2018-02-17T16:26:02.294Z,57.00
2018-02-17T16:28:29.768Z,38.47
2018-02-17T16:30:58.027Z,52.73
2018-02-17T16:33:25.513Z,56.53
2018-02-17T16:35:53.101Z,73.97
2018-02-17T16:38:20.571Z,45.13
2018-02-17T16:40:48.692Z,44.70
2018-02-17T16:43:16.179Z,84.23
2018-02-17T16:45:43.691Z,45.73
2018-02-17T16:48:11.198Z,49.50
2018-02-17T16:50:38.673Z,41.20
2018-02-17T16:53:06.950Z,58.77
2018-02-17T16:55:34.442Z,43.40
2018-02-17T16:58:01.961Z,55.63
2018-02-17T17:00:29.430Z,51.17
2018-02-17T17:02:57.712Z,75.03
2018-02-17T17:05:25.167Z,53.87
2018-02-17T17:07:52.677Z,71.67
2018-02-17T17:10:20.158Z,52.30
2018-02-17T17:12:47.643Z,74.33
2018-02-17T17:15:15.154Z,56.67
2018-02-17T17:17:42.630Z,67.90
2018-02-17T17:20:10.123Z,85.73
2018-02-17T17:22:38.432Z,57.70
2018-02-17T17:25:06.719Z,47.37
2018-02-17T17:27:34.195Z,41.47
2018-02-17T17:30:01.728Z,50.27
2018-02-17T17:32:29.274Z,69.57
2018-02-17T17:34:57.550Z,57.43
2018-02-17T17:37:26.412Z,61.93
2018-02-17T17:39:53.978Z,55.83
2018-02-17T17:42:21.455Z,53.30
2018-02-17T17:44:49.753Z,43.33
2018-02-17T17:47:17.242Z,69.17
2018-02-17T17:49:44.769Z,70.33
2018-02-17T17:52:12.251Z,92.47
2018-02-17T17:54:39.788Z,80.50
2018-02-17T17:57:07.268Z,75.20
2018-02-17T17:59:34.780Z,92.30
2018-02-17T18:02:02.268Z,144.80
2018-02-17T18:04:30.150Z,102.43
2018-02-17T18:06:57.636Z,104.50
2018-02-17T18:09:26.209Z,93.27
2018-02-17T18:11:53.726Z,93.30
2018-02-17T18:14:21.188Z,141.40
2018-02-17T18:16:48.725Z,85.73
2018-02-17T18:19:16.234Z,66.97
2018-02-17T18:21:43.731Z,57.67
2018-02-17T18:24:11.203Z,64.17
2018-02-17T18:26:39.675Z,75.30
2018-02-17T18:29:07.928Z,85.93
2018-02-17T18:31:35.433Z,64.57
2018-02-17T18:34:02.904Z,97.97
2018-02-17T18:36:30.385Z,84.53
2018-02-17T18:38:57.891Z,84.23
2018-02-17T18:41:26.151Z,77.27
2018-02-17T18:43:54.427Z,79.60
2018-02-17T18:46:21.896Z,122.87
2018-02-17T18:48:49.424Z,87.50
2018-02-17T18:51:16.911Z,107.10
2018-02-17T18:53:45.166Z,97.13
2018-02-17T18:56:13.146Z,173.30
2018-02-17T18:58:41.435Z,190.13
2018-02-17T19:01:09.694Z,242.37
2018-02-17T19:03:37.227Z,233.97
2018-02-17T19:06:04.713Z,245.43
2018-02-17T19:08:32.217Z,104.10
2018-02-17T19:10:59.727Z,82.27
2018-02-17T19:13:27.232Z,110.50
2018-02-17T19:15:54.845Z,98.83
2018-02-17T19:18:23.149Z,100.93
2018-02-17T19:20:50.627Z,107.90
2018-02-17T19:23:18.209Z,90.07
2018-02-17T19:25:45.676Z,106.47
2018-02-17T19:28:13.175Z,203.70
2018-02-17T19:30:40.679Z,93.37
2018-02-17T19:33:08.173Z,182.17
2018-02-17T19:35:35.693Z,222.30
2018-02-17T19:38:03.186Z,170.13
2018-02-17T19:40:30.711Z,188.63
2018-02-17T19:42:58.209Z,197.30
2018-02-17T19:45:26.576Z,106.77
2018-02-17T19:47:54.069Z,107.03
2018-02-17T19:50:21.602Z,145.03
2018-02-17T19:52:49.086Z,180.73
2018-02-17T19:55:16.966Z,200.77
2018-02-17T19:57:44.439Z,270.07
2018-02-17T20:00:11.907Z,157.33
2018-02-17T20:02:39.445Z,125.13
2018-02-17T20:05:06.948Z,166.73
2018-02-17T20:07:34.464Z,138.10
2018-02-17T20:10:02.018Z,227.40
2018-02-17T20:12:29.536Z,177.33
2018-02-17T20:14:57.798Z,164.93
2018-02-17T20:17:25.312Z,129.97
2018-02-17T20:19:52.804Z,241.80
2018-02-17T20:22:20.405Z,192.43
2018-02-17T20:24:48.659Z,153.67
2018-02-17T20:27:16.170Z,143.77
2018-02-17T20:29:43.722Z,220.33
2018-02-17T20:32:11.657Z,219.47
2018-02-17T20:34:39.969Z,229.07
2018-02-17T20:37:07.492Z,250.80
2018-02-17T20:39:35.751Z,220.23
2018-02-17T20:42:05.588Z,213.80
2018-02-17T20:44:33.157Z,422.37
2018-02-17T20:47:00.687Z,299.30
2018-02-17T20:49:28.182Z,147.63
2018-02-17T20:51:55.731Z,245.97
2018-02-17T20:54:23.216Z,226.43
2018-02-17T20:56:50.834Z,351.93
2018-02-17T20:59:19.131Z,428.97
2018-02-17T21:01:46.704Z,289.20
2018-02-17T21:04:15.024Z,281.03
2018-02-17T21:06:42.531Z,247.40
2018-02-17T21:09:10.035Z,235.03
2018-02-17T21:11:37.546Z,162.73
2018-02-17T21:14:05.050Z,146.40
2018-02-17T21:16:32.582Z,139.73
2018-02-17T21:19:00.078Z,161.33
2018-02-17T21:21:27.574Z,125.47
2018-02-17T21:23:55.148Z,129.47
2018-02-17T21:26:22.682Z,93.80
2018-02-17T21:28:50.944Z,131.93
2018-02-17T21:31:18.474Z,125.40
2018-02-17T21:33:45.960Z,149.77
2018-02-17T21:36:13.434Z,225.20
2018-02-17T21:38:41.719Z,166.30
2018-02-17T21:41:09.204Z,188.70
2018-02-17T21:43:36.734Z,238.20
2018-02-17T21:46:04.225Z,287.33
2018-02-17T21:48:31.733Z,158.60
2018-02-17T21:50:59.987Z,119.67
2018-02-17T21:53:27.608Z,168.10
2018-02-17T21:55:55.096Z,140.53
2018-02-17T21:58:22.620Z,154.03
2018-02-17T22:00:50.178Z,187.07
2018-02-17T22:03:17.675Z,147.13
2018-02-17T22:05:45.196Z,121.60
2018-02-17T22:08:12.721Z,108.67
2018-02-17T22:10:40.986Z,132.33
2018-02-17T22:13:08.537Z,124.17
2018-02-17T22:15:36.020Z,113.57
2018-02-17T22:18:05.291Z,99.87
2018-02-17T22:20:32.786Z,116.80
2018-02-17T22:23:00.293Z,141.47
2018-02-17T22:25:27.922Z,118.37
2018-02-17T22:27:55.387Z,136.90
2018-02-17T22:30:22.918Z,104.33
2018-02-17T22:32:51.179Z,93.67
2018-02-17T22:35:19.480Z,84.77
2018-02-17T22:37:47.713Z,101.10
2018-02-17T22:40:15.232Z,103.83
2018-02-17T22:42:42.716Z,96.30
2018-02-17T22:45:10.405Z,98.30
2018-02-17T22:47:38.825Z,103.73
2018-02-17T22:50:06.344Z,98.80
2018-02-17T22:52:34.607Z,90.37
2018-02-17T22:55:02.116Z,77.63
2018-02-17T22:57:29.623Z,83.87
2018-02-17T22:59:57.234Z,132.73
2018-02-17T23:02:24.757Z,99.37
2018-02-17T23:04:52.309Z,137.60
2018-02-17T23:07:19.794Z,104.33
2018-02-17T23:09:47.310Z,114.20
2018-02-17T23:12:14.781Z,106.23
2018-02-17T23:14:42.315Z,108.57
2018-02-17T23:17:09.808Z,107.73
2018-02-17T23:19:38.066Z,98.43
2018-02-17T23:22:05.680Z,89.27
2018-02-17T23:24:33.174Z,86.10
2018-02-17T23:27:00.689Z,102.63
2018-02-17T23:29:28.254Z,97.70
2018-02-17T23:31:55.769Z,95.07
2018-02-17T23:34:23.252Z,88.23
2018-02-17T23:36:50.760Z,90.77
2018-02-17T23:39:18.271Z,98.57
2018-02-17T23:41:45.778Z,92.30
2018-02-17T23:44:13.275Z,83.43
2018-02-17T23:46:41.562Z,95.63
2018-02-17T23:49:09.833Z,89.50
2018-02-17T23:51:38.080Z,104.00
2018-02-17T23:54:05.582Z,111.20
2018-02-17T23:56:33.068Z,88.63
2018-02-17T23:59:00.587Z,138.10
